Shellman Bluff, Georgia
Current Conditions -  °F | °C
As of 4:15 AM on Sunday 21 Dec 2014 (Local Time) from KBQK Reporting Station
Overcast Overcast  
Wind Chill: 54°   Ceiling: 600
Heat Index: 54°   Visibility: 10mi
Dew Point: 52°   Wind: 7mph
Humidity: 94%   Direction: 40°NE
Pressure: 30.13"   Gusts: NA
Location:  31.5632°N, 81.4638°W
Report Text: KBQK 210915Z AUTO 04006KT 10SM OVC006 12/11 A3013 RMK AO1
Loading
Personal Weather Stations






























Interactive Weather Map New forecast layout! Learn more

10-Day Weather Forecast

Advertisements
Track Severe Weather on mobile